Watford City, ND

1:58 PM CDT on July 07, 2015 (GMT -0500)
Tioga Municipal Airport | | Change Station
CLOSE
Current Station
Airport
Location: Tioga Municipal Airport,
Elevation: 2270 ft
Nearby Weather Stations

Elev 2270 ft 48.38 °N, 102.90 °W | Updated 23 minutes ago

Partly Cloudy
Partly Cloudy
72 °F
Feels Like 72 °F
N
7
Wind Variable Wind from South

Today
High -- | Low -- °F
--% Chance of Precip.
Yesterday
High -- | Low -- °F
Precip. -- in
6:02 AM 9:52 PM
Waning Gibbous, 62% visible
Pressure 30.08 in
Visibility 10.0 miles
Clouds Scattered Clouds 3800 ft
Mostly Cloudy 7000 ft
Dew Point 61 °F
Humidity 69%
Rainfall 0.00 in
Snow Depth Not available.
UV 6 out of 12
Pollen 4.90 out of 12
Air Quality Not available.
Flu Activity Not available.
METAR KD60 071835Z AUTO 19006KT 10SM SCT038 BKN070 22/16 A3008 RMK AO2

More Conditions Fewer Conditions

Pressure 30.08 in
Visibility 10.0 miles
Clouds Scattered Clouds 3800 ft
Mostly Cloudy 7000 ft
Dew Point 61 °F
Humidity 69%
Rainfall 0.00 in
Snow Depth Not available.
UV 6 out of 12
Pollen 4.90 out of 12
Air Quality Not available.
Flu Activity Not available.
METAR KD60 071835Z AUTO 19006KT 10SM SCT038 BKN070 22/16 A3008 RMK AO2

More Conditions Fewer Conditions

10-Day Weather Forecast

×

Almanac

Astronomy

Jul. 07, 2015 Rise Set
Actual Time
Civil Twilight
Nautical Twilight
Astronomical Twilight
Moon
Length of Visible Light
Length of Day
Tomorrow will be .
, % of the Moon is Illuminated

Today's Extremes

State Highs State Lows

Community

WunderPhotos

Upload Photos

1,835,868 photos uploaded!

WunderBlogs® & News

Nearby

Air Quality

  Air Quality AQ Index Pollutant
Not available.

Snow Depth

Station Depth Elevation

Earthquake Activity

City Distance Mag. Time & Date
Minimum magnitude displayed is 2.5.

Coastal Water Temperatures

Place Temperature

Stations

Nearby Weather Stations

Station Location Temp. Windchill Dew Point Humidity Wind Precip. Elev Updated Type